Crown Of Scandinavia — OXRA6 — position and weather

sailwx.info

Track history (hours):
 
Tides and Currents Weather Stations Pressure Air Temp Water Temp Dewpoint Dewpoint Depression Visibility Wind Speed Wind Dir Waves Ship Positions

Crown Of Scandinavia

Last reported at 2019-Jul-22 05:00 UTC. Time now 2019-Jul-22 05:26 UTC.
Position N 59°19' E 010°36'.

Length 171 m; draft 6.3 m.

Type: Ship. MMSI: 219592000.

Date/timePositionNaut miles runAvg speedWind from/ knotsBaromVisibWave heightAir tempDewpointWater temp
2019-Jul-22 05:00N 59°19' E 010°36'816.5
2019-Jul-22 04:30N 59°11' E 010°39'816.7
2019-Jul-22 04:00N 59°03' E 010°39'917.1
2019-Jul-22 03:31N 58°54' E 010°38'917.2
2019-Jul-22 03:00N 58°45' E 010°37'817.0
2019-Jul-22 02:30N 58°37' E 010°37'816.5
2019-Jul-22 02:00N 58°30' E 010°47'816.4
2019-Jul-22 01:30N 58°24' E 010°56'816.3
2019-Jul-22 01:00N 58°16' E 011°01'816.6
2019-Jul-22 00:30N 58°08' E 011°06'816.7
2019-Jul-22 00:00N 58°00' E 011°12'816.5
2019-Jul-21 23:30N 57°53' E 011°17'816.4
2019-Jul-21 23:01N 57°45' E 011°22'816.4
2019-Jul-21 22:30N 57°37' E 011°28'816.2
2019-Jul-21 22:00N 57°30' E 011°34'816.1
2019-Jul-21 21:30N 57°23' E 011°42'816.1
2019-Jul-21 21:00N 57°16' E 011°49'815.9
2019-Jul-21 20:30N 57°09' E 011°56'815.9
2019-Jul-21 20:00N 57°01' E 011°59'916.2
2019-Jul-21 19:25N 56°52' E 012°04'1016.2
2019-Jul-21 18:48N 56°42' E 012°10'515.5
2019-Jul-21 18:30N 56°38' E 012°13'2914.7
2019-Jul-21 16:31N 56°10' E 012°29'116.0
2019-Jul-21 16:27N 56°09' E 012°30'716.5
2019-Jul-21 16:00N 56°04' E 012°38'816.2
2019-Jul-21 15:30N 55°56' E 012°43'815.9
2019-Jul-21 15:00N 55°48' E 012°43'713.2
2019-Jul-21 14:30N 55°43' E 012°37'1 2.1
2019-Jul-21 14:00N 55°42' E 012°36'0 0.0
2019-Jul-21 13:30N 55°42' E 012°36'0 0.0
2019-Jul-21 13:00N 55°42' E 012°36'0 0.0
2019-Jul-21 12:30N 55°42' E 012°36'0 0.0
2019-Jul-21 12:00N 55°42' E 012°36'0 0.0
2019-Jul-21 11:30N 55°42' E 012°36'0 0.0
2019-Jul-21 11:00N 55°42' E 012°36'0 0.0
2019-Jul-21 10:30N 55°42' E 012°36'0 0.0
2019-Jul-21 10:00N 55°42' E 012°36'0 0.0
2019-Jul-21 09:30N 55°42' E 012°36'0 0.0
2019-Jul-21 09:00N 55°42' E 012°36'0 0.0
2019-Jul-21 08:30N 55°42' E 012°36'0 0.0
2019-Jul-21 08:00N 55°42' E 012°36'0 0.7
2019-Jul-21 07:30N 55°42' E 012°36'611.0
2019-Jul-21 07:01N 55°47' E 012°42'815.0
2019-Jul-21 06:30N 55°54' E 012°39'815.5
2019-Jul-21 06:00N 56°02' E 012°39'814.8
2019-Jul-21 05:30N 56°08' E 012°30'715.0
2019-Jul-21 05:00N 56°15' E 012°25'815.3
2019-Jul-21 04:30N 56°22' E 012°21'5416.2
2019-Jul-21 01:09N 57°14' E 011°52'216.0
2019-Jul-21 01:00N 57°16' E 011°50'815.7
2019-Jul-21 00:30N 57°22' E 011°42'816.3
2019-Jul-21 00:00N 57°29' E 011°33'816.6
2019-Jul-20 23:31N 57°36' E 011°25'816.2
2019-Jul-20 23:01N 57°43' E 011°18'816.6
2019-Jul-20 22:31N 57°50' E 011°09'917.3
2019-Jul-20 22:00N 57°58' E 011°01'816.0
2019-Jul-20 21:30N 58°05' E 010°56'816.0
2019-Jul-20 21:00N 58°13' E 010°50'815.8
2019-Jul-20 20:31N 58°20' E 010°45'816.5
2019-Jul-20 20:00N 58°28' E 010°39'816.4
2019-Jul-20 19:30N 58°36' E 010°36'816.8
2019-Jul-20 19:00N 58°44' E 010°35'816.9
2019-Jul-20 18:30N 58°53' E 010°35'917.7
2019-Jul-20 18:00N 59°01' E 010°37'917.1
2019-Jul-20 17:30N 59°10' E 010°39'917.0
2019-Jul-20 17:00N 59°18' E 010°36'917.2
2019-Jul-20 16:30N 59°27' E 010°33'917.1
2019-Jul-20 16:00N 59°35' E 010°38'714.0
2019-Jul-20 15:30N 59°42' E 010°35'815.2
2019-Jul-20 15:00N 59°49' E 010°34'713.5
2019-Jul-20 14:30N 59°54' E 010°44'0 0.3
2019-Jul-20 14:00N 59°54' E 010°45'0 0.0
2019-Jul-20 13:30N 59°54' E 010°45'0 0.0
2019-Jul-20 12:59N 59°54' E 010°45'0 0.0
2019-Jul-20 12:30N 59°54' E 010°45'0 0.0
2019-Jul-20 12:00N 59°54' E 010°45'0 0.0
2019-Jul-20 11:29N 59°54' E 010°45'0 0.0
2019-Jul-20 11:00N 59°54' E 010°45'0 0.0
2019-Jul-20 10:30N 59°54' E 010°45'0 0.0
2019-Jul-20 10:00N 59°54' E 010°45'0 0.0
2019-Jul-20 09:30N 59°54' E 010°45'0 0.0
2019-Jul-20 09:00N 59°54' E 010°45'0 0.0
2019-Jul-20 08:30N 59°54' E 010°45'0 0.0
2019-Jul-20 08:00N 59°54' E 010°45'1 1.4
2019-Jul-20 07:30N 59°54' E 010°43'714.3
2019-Jul-20 07:00N 59°48' E 010°35'714.7
2019-Jul-20 06:30N 59°41' E 010°36'714.4
2019-Jul-20 06:00N 59°34' E 010°38'815.6
2019-Jul-20 05:30N 59°26' E 010°34'815.9
2019-Jul-20 05:01N 59°19' E 010°36'816.1
2019-Jul-20 04:31N 59°11' E 010°39'815.8
2019-Jul-20 04:00N 59°03' E 010°40'815.9
2019-Jul-20 03:30N 58°55' E 010°41'815.7
2019-Jul-20 03:00N 58°47' E 010°41'815.6
2019-Jul-20 02:30N 58°39' E 010°42'815.3
2019-Jul-20 02:00N 58°32' E 010°44'815.9
2019-Jul-20 01:30N 58°25' E 010°52'816.1
2019-Jul-20 01:00N 58°18' E 011°00'816.1
2019-Jul-20 00:30N 58°11' E 011°06'816.1
2019-Jul-20 00:00N 58°03' E 011°11'815.9
2019-Jul-19 23:30N 57°55' E 011°16'816.2
2019-Jul-19 23:00N 57°48' E 011°21'816.5
2019-Jul-19 22:30N 57°40' E 011°27'816.8
2019-Jul-19 22:00N 57°33' E 011°33'816.1
2019-Jul-19 21:30N 57°25' E 011°40'815.5
2019-Jul-19 21:00N 57°19' E 011°47'816.5
2019-Jul-19 20:30N 57°11' E 011°54'816.0
2019-Jul-19 20:00N 57°04' E 012°00'1415.9
2019-Jul-19 19:09N 56°51' E 012°09'616.1
2019-Jul-19 18:47N 56°46' E 012°12'415.8
2019-Jul-19 18:30N 56°41' E 012°14'815.6
2019-Jul-19 17:58N 56°33' E 012°18'1115.5
2019-Jul-19 17:14N 56°22' E 012°23'1216.2
2019-Jul-19 16:28N 56°10' E 012°30'817.3
2019-Jul-19 16:00N 56°04' E 012°38'816.2
2019-Jul-19 15:30N 55°56' E 012°43'815.8
2019-Jul-19 15:00N 55°48' E 012°43'713.9
2019-Jul-19 14:30N 55°43' E 012°37'1 1.4
2019-Jul-19 14:01N 55°42' E 012°36'0 0.0
2019-Jul-19 13:30N 55°42' E 012°36'0 0.0
2019-Jul-19 13:00N 55°42' E 012°36'0 0.0
2019-Jul-19 12:30N 55°42' E 012°36'0 0.0
2019-Jul-19 12:00N 55°42' E 012°36'0 0.0
2019-Jul-19 11:30N 55°42' E 012°36'0 0.0
2019-Jul-19 11:00N 55°42' E 012°36'0 0.0
2019-Jul-19 10:31N 55°42' E 012°36'0 0.0
2019-Jul-19 10:00N 55°42' E 012°36'0 0.0
2019-Jul-19 09:31N 55°42' E 012°36'0 0.0
2019-Jul-19 09:00N 55°42' E 012°36'0 0.0
2019-Jul-19 08:31N 55°42' E 012°36'0 0.0
2019-Jul-19 08:01N 55°42' E 012°36'1 1.4
2019-Jul-19 07:30N 55°43' E 012°37'714.0
2019-Jul-19 07:00N 55°49' E 012°42'815.8
2019-Jul-19 06:30N 55°57' E 012°40'815.4
2019-Jul-19 06:00N 56°04' E 012°37'815.3
2019-Jul-19 05:30N 56°09' E 012°26'816.6
2019-Jul-19 05:00N 56°15' E 012°15'816.9
2019-Jul-19 04:30N 56°22' E 012°07'2416.3
2019-Jul-19 03:03N 56°44' E 011°53'116.7
2019-Jul-19 03:00N 56°45' E 011°53'816.4
2019-Jul-19 02:30N 56°53' E 011°48'816.8
2019-Jul-19 02:00N 57°01' E 011°43'816.8
2019-Jul-19 01:30N 57°08' E 011°38'816.8
2019-Jul-19 01:00N 57°16' E 011°32'816.5
2019-Jul-19 00:30N 57°24' E 011°26'816.1
2019-Jul-19 00:00N 57°31' E 011°20'816.5
2019-Jul-18 23:30N 57°39' E 011°15'816.2
2019-Jul-18 23:00N 57°46' E 011°09'816.4
2019-Jul-18 22:30N 57°54' E 011°03'816.3
2019-Jul-18 22:00N 58°02' E 010°58'816.4
2019-Jul-18 21:30N 58°09' E 010°52'816.6
2019-Jul-18 21:00N 58°17' E 010°46'816.5
2019-Jul-18 20:30N 58°25' E 010°41'816.2
2019-Jul-18 20:00N 58°33' E 010°37'816.0
2019-Jul-18 19:30N 58°40' E 010°35'816.4
2019-Jul-18 19:00N 58°49' E 010°34'816.9
2019-Jul-18 18:30N 58°57' E 010°36'816.7
2019-Jul-18 18:00N 59°05' E 010°37'816.2
2019-Jul-18 17:30N 59°14' E 010°37'816.0
2019-Jul-18 17:00N 59°21' E 010°34'815.3
2019-Jul-18 16:31N 59°29' E 010°34'815.3
2019-Jul-18 16:00N 59°36' E 010°38'612.6
2019-Jul-18 15:30N 59°43' E 010°35'714.9
2019-Jul-18 15:01N 59°50' E 010°35'612.1
2019-Jul-18 14:30N 59°54' E 010°44'0 0.6
2019-Jul-18 13:58N 59°54' E 010°45'0 0.0
2019-Jul-18 13:30N 59°54' E 010°45'0 0.0
2019-Jul-18 13:01N 59°54' E 010°45'0 0.0
2019-Jul-18 12:31N 59°54' E 010°45'0 0.0
2019-Jul-18 12:01N 59°54' E 010°45'0 0.0
2019-Jul-18 11:31N 59°54' E 010°45'0 0.0
2019-Jul-18 11:01N 59°54' E 010°45'0 0.0
2019-Jul-18 10:31N 59°54' E 010°45'0 0.0
2019-Jul-18 10:01N 59°54' E 010°45'0 0.0
2019-Jul-18 09:31N 59°54' E 010°45'0 0.0
2019-Jul-18 09:01N 59°54' E 010°45'0 0.0
2019-Jul-18 08:31N 59°54' E 010°45'0 0.0
2019-Jul-18 08:00N 59°54' E 010°45'0 0.3
2019-Jul-18 07:30N 59°54' E 010°44'612.8
2019-Jul-18 07:00N 59°50' E 010°35'714.7
2019-Jul-18 06:30N 59°42' E 010°36'714.0
2019-Jul-18 06:00N 59°35' E 010°38'816.3
2019-Jul-18 05:30N 59°27' E 010°34'816.5
2019-Jul-18 05:00N 59°19' E 010°36'816.7
2019-Jul-18 04:30N 59°11' E 010°39'816.4
2019-Jul-18 04:01N 59°03' E 010°40'816.0
2019-Jul-18 03:31N 58°55' E 010°41'816.0
2019-Jul-18 03:01N 58°47' E 010°42'815.9
2019-Jul-18 02:31N 58°39' E 010°43'816.0
2019-Jul-18 02:00N 58°31' E 010°45'816.1
2019-Jul-18 01:30N 58°24' E 010°52'816.0
2019-Jul-18 01:01N 58°17' E 011°01'816.3
2019-Jul-18 00:30N 58°10' E 011°07'816.0
2019-Jul-18 00:01N 58°02' E 011°12'816.2
2019-Jul-17 23:30N 57°55' E 011°18'816.6
2019-Jul-17 23:01N 57°47' E 011°23'816.6
2019-Jul-17 22:31N 57°39' E 011°28'917.2
2019-Jul-17 22:01N 57°31' E 011°34'815.9
2019-Jul-17 21:31N 57°24' E 011°41'815.8
2019-Jul-17 21:00N 57°17' E 011°48'816.3
2019-Jul-17 20:30N 57°10' E 011°54'816.4
2019-Jul-17 20:00N 57°02' E 011°58'816.5
2019-Jul-17 19:31N 56°54' E 012°03'816.3
2019-Jul-17 19:01N 56°46' E 012°07'816.3
2019-Jul-17 18:30N 56°39' E 012°12'816.1
2019-Jul-17 18:00N 56°31' E 012°18'815.8
2019-Jul-17 17:30N 56°24' E 012°22'1116.3
2019-Jul-17 16:50N 56°13' E 012°28'516.5
2019-Jul-17 16:31N 56°08' E 012°32'816.6
2019-Jul-17 16:00N 56°01' E 012°40'816.2
2019-Jul-17 15:31N 55°54' E 012°44'815.9
2019-Jul-17 15:00N 55°46' E 012°42'510.0
2019-Jul-17 14:30N 55°42' E 012°36'0 0.0
2019-Jul-17 14:00N 55°42' E 012°36'0 0.0
2019-Jul-17 13:30N 55°42' E 012°36'0 0.0
2019-Jul-17 13:00N 55°42' E 012°36'0 0.0
2019-Jul-17 12:31N 55°42' E 012°36'0 0.0
2019-Jul-17 12:00N 55°42' E 012°36'0 0.0
2019-Jul-17 11:30N 55°42' E 012°36'0 0.0
2019-Jul-17 11:01N 55°42' E 012°36'0 0.0
2019-Jul-17 10:31N 55°42' E 012°36'0 0.0
2019-Jul-17 10:01N 55°42' E 012°36'0 0.0
2019-Jul-17 09:31N 55°42' E 012°36'0 0.0
2019-Jul-17 09:00N 55°42' E 012°36'0 0.0
2019-Jul-17 08:31N 55°42' E 012°36'0 0.0
2019-Jul-17 08:00N 55°42' E 012°36'0 0.9
2019-Jul-17 07:30N 55°42' E 012°36'611.9
2019-Jul-17 07:00N 55°47' E 012°42'815.8
2019-Jul-17 06:30N 55°55' E 012°39'816.0
2019-Jul-17 06:00N 56°03' E 012°39'816.3
2019-Jul-17 05:30N 56°09' E 012°29'816.8
2019-Jul-17 05:00N 56°17' E 012°24'2917.2
2019-Jul-17 03:17N 56°45' E 012°07'517.1
2019-Jul-17 03:00N 56°50' E 012°04'917.2
2019-Jul-17 02:28N 56°59' E 012°00'816.9
2019-Jul-17 02:00N 57°06' E 011°56'816.8
2019-Jul-17 01:30N 57°14' E 011°51'816.8
2019-Jul-17 01:00N 57°21' E 011°42'917.3
2019-Jul-17 00:30N 57°27' E 011°32'816.6
2019-Jul-17 00:00N 57°34' E 011°23'917.1
2019-Jul-16 23:30N 57°43' E 011°20'816.6
2019-Jul-16 23:00N 57°50' E 011°12'917.2
2019-Jul-16 22:30N 57°57' E 011°03'917.4
2019-Jul-16 22:00N 58°05' E 010°56'917.3
2019-Jul-16 21:30N 58°13' E 010°50'917.2
2019-Jul-16 21:00N 58°21' E 010°44'816.6
2019-Jul-16 20:30N 58°29' E 010°38'816.1
2019-Jul-16 20:00N 58°37' E 010°37'816.4
2019-Jul-16 19:30N 58°45' E 010°35'816.5
2019-Jul-16 19:00N 58°53' E 010°35'816.8
2019-Jul-16 18:30N 59°01' E 010°37'917.1
2019-Jul-16 18:00N 59°10' E 010°38'917.8
2019-Jul-16 17:30N 59°19' E 010°35'917.7
2019-Jul-16 17:00N 59°27' E 010°34'817.0
2019-Jul-16 16:30N 59°36' E 010°38'713.4
2019-Jul-16 16:00N 59°42' E 010°35'815.7
2019-Jul-16 15:30N 59°50' E 010°35'611.1
2019-Jul-16 15:00N 59°54' E 010°43'1 1.6
2019-Jul-16 14:30N 59°54' E 010°45'0 0.0
2019-Jul-16 14:00N 59°54' E 010°45'0 0.0
2019-Jul-16 13:30N 59°54' E 010°45'0 0.0
2019-Jul-16 13:00N 59°54' E 010°45'0 0.0
2019-Jul-16 12:30N 59°54' E 010°45'0 0.0
2019-Jul-16 11:59N 59°54' E 010°45'0 0.0
2019-Jul-16 11:30N 59°54' E 010°45'0 0.0
2019-Jul-16 11:00N 59°54' E 010°45'0 0.0
2019-Jul-16 10:30N 59°54' E 010°45'0 0.0
2019-Jul-16 10:00N 59°54' E 010°45'0 0.0
2019-Jul-16 09:30N 59°54' E 010°45'0 0.0
2019-Jul-16 09:00N 59°54' E 010°45'0 0.0
2019-Jul-16 08:30N 59°54' E 010°45'0 0.0
2019-Jul-16 08:00N 59°54' E 010°45'1 1.0
2019-Jul-16 07:30N 59°54' E 010°44'714.2
2019-Jul-16 07:00N 59°49' E 010°35'715.0
2019-Jul-16 06:30N 59°41' E 010°36'714.6
2019-Jul-16 06:00N 59°34' E 010°38'816.7
2019-Jul-16 05:31N 59°26' E 010°34'816.4
2019-Jul-16 05:00N 59°18' E 010°37'816.4
2019-Jul-16 04:30N 59°10' E 010°39'816.8
2019-Jul-16 04:00N 59°01' E 010°41'816.8
2019-Jul-16 03:30N 58°53' E 010°41'816.8
2019-Jul-16 03:00N 58°44' E 010°41'917.7
2019-Jul-16 02:30N 58°35' E 010°40'917.0
2019-Jul-16 02:00N 58°27' E 010°40'815.5
2019-Jul-16 01:30N 58°20' E 010°45'917.0
2019-Jul-16 01:00N 58°14' E 010°57'816.6
2019-Jul-16 00:30N 58°06' E 011°01'816.9
2019-Jul-16 00:00N 57°58' E 011°06'917.2
2019-Jul-15 23:30N 57°51' E 011°15'917.6
2019-Jul-15 23:00N 57°44' E 011°24'917.7
2019-Jul-15 22:30N 57°35' E 011°30'917.2
2019-Jul-15 22:01N 57°28' E 011°37'917.3
2019-Jul-15 21:30N 57°20' E 011°45'917.9
2019-Jul-15 21:00N 57°12' E 011°53'917.9
2019-Jul-15 20:30N 57°04' E 011°59'916.9
2019-Jul-15 19:58N 56°56' E 012°05'4616.5
2019-Jul-15 17:11N 56°11' E 012°27'417.4
2019-Jul-15 16:58N 56°08' E 012°31'817.2
2019-Jul-15 16:31N 56°02' E 012°40'816.5
2019-Jul-15 16:01N 55°54' E 012°44'815.8
2019-Jul-15 15:31N 55°46' E 012°42'510.3
2019-Jul-15 15:00N 55°42' E 012°36'0 0.0
2019-Jul-15 14:29N 55°42' E 012°36'0 0.0
2019-Jul-15 13:53N 55°42' E 012°36'0 0.0
2019-Jul-15 13:29N 55°42' E 012°36'0 0.0
2019-Jul-15 12:53N 55°42' E 012°36'0 0.0
2019-Jul-15 12:29N 55°42' E 012°36'0 0.0
2019-Jul-15 11:59N 55°42' E 012°36'0 0.0
2019-Jul-15 11:29N 55°42' E 012°36'0 0.0
2019-Jul-15 10:59N 55°42' E 012°36'0 0.0
2019-Jul-15 10:26N 55°42' E 012°36'0 0.0
2019-Jul-15 09:59N 55°42' E 012°36'0 0.0
2019-Jul-15 09:29N 55°42' E 012°36'0 0.0
2019-Jul-15 08:59N 55°42' E 012°36'0 0.0
2019-Jul-15 08:23N 55°42' E 012°36'0 0.0
2019-Jul-15 07:59N 55°42' E 012°36'0 0.6
2019-Jul-15 07:30N 55°42' E 012°36'510.9
2019-Jul-15 07:01N 55°47' E 012°42'815.5
2019-Jul-15 06:31N 55°54' E 012°39'816.0
2019-Jul-15 06:00N 56°02' E 012°39'815.6
2019-Jul-15 05:30N 56°08' E 012°29'816.6
2019-Jul-15 05:00N 56°15' E 012°22'1015.5
2019-Jul-15 04:19N 56°25' E 012°17'817.4
2019-Jul-15 03:52N 56°33' E 012°15'818.9
2019-Jul-15 03:28N 56°41' E 012°11'918.5
2019-Jul-15 03:00N 56°49' E 012°06'1317.8
2019-Jul-15 02:15N 57°02' E 011°59'517.6
2019-Jul-15 01:57N 57°07' E 011°57'817.7
2019-Jul-15 01:31N 57°14' E 011°52'917.6
2019-Jul-15 01:01N 57°21' E 011°43'917.9
2019-Jul-15 00:31N 57°28' E 011°32'918.1
2019-Jul-15 00:00N 57°35' E 011°20'917.4
2019-Jul-14 23:30N 57°42' E 011°12'918.0
2019-Jul-14 23:01N 57°50' E 011°06'918.0
2019-Jul-14 22:31N 57°59' E 010°60'816.9
2019-Jul-14 22:00N 58°07' E 010°54'917.2
2019-Jul-14 21:31N 58°15' E 010°48'917.4
2019-Jul-14 21:00N 58°23' E 010°42'917.2
2019-Jul-14 20:30N 58°31' E 010°37'815.5
2019-Jul-14 20:00N 58°39' E 010°36'815.9
2019-Jul-14 19:31N 58°47' E 010°35'816.7
2019-Jul-14 19:00N 58°55' E 010°36'817.1
2019-Jul-14 18:31N 59°04' E 010°37'817.0
2019-Jul-14 18:00N 59°12' E 010°38'816.8
2019-Jul-14 17:30N 59°20' E 010°35'816.2
2019-Jul-14 17:00N 59°29' E 010°34'816.0
2019-Jul-14 16:31N 59°36' E 010°37'713.6
2019-Jul-14 16:00N 59°43' E 010°34'815.7
2019-Jul-14 15:31N 59°51' E 010°35'611.1
2019-Jul-14 15:00N 59°54' E 010°45'0 0.0
2019-Jul-14 14:28N 59°54' E 010°45'0 0.0
2019-Jul-14 13:58N 59°54' E 010°45'0 0.0
2019-Jul-14 13:28N 59°54' E 010°45'0 0.0
2019-Jul-14 12:58N 59°54' E 010°45'0 0.0
2019-Jul-14 12:28N 59°54' E 010°45'0 0.0
2019-Jul-14 11:58N 59°54' E 010°45'0 0.0
2019-Jul-14 11:28N 59°54' E 010°45'0 0.0
2019-Jul-14 10:58N 59°54' E 010°45'0 0.0
2019-Jul-14 10:28N 59°54' E 010°45'0 0.0
2019-Jul-14 09:58N 59°54' E 010°45'0 0.0
2019-Jul-14 09:28N 59°54' E 010°45'0 0.0
2019-Jul-14 08:58N 59°54' E 010°45'0 0.0
2019-Jul-14 08:28N 59°54' E 010°45'0 0.0
2019-Jul-14 07:58N 59°54' E 010°45'1 2.0
2019-Jul-14 07:30N 59°54' E 010°43'714.8
2019-Jul-14 07:00N 59°48' E 010°35'714.6
2019-Jul-14 06:31N 59°41' E 010°37'5 9.3
2019-Jul-14 06:01N 59°36' E 010°38'714.9
2019-Jul-14 05:30N 59°29' E 010°35'714.9
2019-Jul-14 05:00N 59°21' E 010°35'816.0
2019-Jul-14 04:30N 59°14' E 010°38'816.0
2019-Jul-14 04:00N 59°06' E 010°40'816.0
2019-Jul-14 03:30N 58°58' E 010°42'815.7
2019-Jul-14 03:00N 58°50' E 010°45'815.8
2019-Jul-14 02:30N 58°42' E 010°47'816.3
2019-Jul-14 02:00N 58°34' E 010°50'816.7
2019-Jul-14 01:30N 58°26' E 010°56'817.0
2019-Jul-14 01:00N 58°18' E 011°01'817.0
2019-Jul-14 00:30N 58°10' E 011°07'816.6
2019-Jul-14 00:00N 58°03' E 011°12'816.4
2019-Jul-13 23:30N 57°55' E 011°18'816.8
2019-Jul-13 23:00N 57°47' E 011°23'917.1
2019-Jul-13 22:30N 57°39' E 011°29'816.7
2019-Jul-13 22:00N 57°31' E 011°34'816.0
2019-Jul-13 21:30N 57°24' E 011°41'816.2
2019-Jul-13 21:00N 57°17' E 011°48'817.0
2019-Jul-13 20:30N 57°09' E 011°55'816.6
2019-Jul-13 20:00N 57°02' E 012°01'816.0
2019-Jul-13 19:30N 56°54' E 012°07'1516.1
2019-Jul-13 18:34N 56°40' E 012°15'115.7
2019-Jul-13 18:30N 56°39' E 012°15'815.5
2019-Jul-13 18:00N 56°31' E 012°18'916.0
2019-Jul-13 17:26N 56°23' E 012°22'1416.8
2019-Jul-13 16:36N 56°09' E 012°30'217.5
2019-Jul-13 16:30N 56°08' E 012°32'816.8
2019-Jul-13 16:00N 56°01' E 012°40'815.8
2019-Jul-13 15:31N 55°54' E 012°45'815.6
2019-Jul-13 15:01N 55°46' E 012°41'5 9.7
2019-Jul-13 14:30N 55°42' E 012°36'0 0.0
2019-Jul-13 14:00N 55°42' E 012°36'0 0.0
2019-Jul-13 13:21N 55°42' E 012°36'0 0.0
2019-Jul-13 12:54N 55°42' E 012°36'0 0.0
2019-Jul-13 12:30N 55°42' E 012°36'0 0.0
2019-Jul-13 12:00N 55°42' E 012°36'0 0.0
2019-Jul-13 11:30N 55°42' E 012°36'0 0.0
2019-Jul-13 11:00N 55°42' E 012°36'0 0.0
2019-Jul-13 10:30N 55°42' E 012°36'0 0.0
2019-Jul-13 10:00N 55°42' E 012°36'0 0.0
2019-Jul-13 09:24N 55°42' E 012°36'0 0.0
2019-Jul-13 08:57N 55°42' E 012°36'0 0.0
2019-Jul-13 08:30N 55°42' E 012°36'0 0.0
2019-Jul-13 08:00N 55°42' E 012°36'0 0.6
2019-Jul-13 07:30N 55°42' E 012°36'611.8
2019-Jul-13 07:00N 55°47' E 012°42'815.1
2019-Jul-13 06:30N 55°55' E 012°39'815.1
2019-Jul-13 06:00N 56°02' E 012°39'714.8
2019-Jul-13 05:30N 56°08' E 012°30'815.0
2019-Jul-13 05:00N 56°14' E 012°22'816.0
2019-Jul-13 04:30N 56°20' E 012°13'816.9
2019-Jul-13 04:00N 56°27' E 012°04'1017.5
2019-Jul-13 03:27N 56°35' E 011°56'918.7
2019-Jul-13 02:59N 56°44' E 011°51'918.7
2019-Jul-13 02:30N 56°53' E 011°47'918.4
2019-Jul-13 02:00N 57°01' E 011°41'918.3
2019-Jul-13 01:30N 57°10' E 011°35'917.8
2019-Jul-13 01:00N 57°18' E 011°30'917.4
2019-Jul-13 00:31N 57°26' E 011°24'917.6
2019-Jul-13 00:00N 57°35' E 011°19'917.6
2019-Jul-12 23:31N 57°43' E 011°14'816.2
2019-Jul-12 23:00N 57°50' E 011°06'816.7
2019-Jul-12 22:30N 57°58' E 011°00'816.3
2019-Jul-12 22:01N 58°05' E 010°55'816.7
2019-Jul-12 21:30N 58°13' E 010°49'816.4
2019-Jul-12 21:00N 58°21' E 010°44'816.4
2019-Jul-12 20:31N 58°28' E 010°38'816.3
2019-Jul-12 20:00N 58°36' E 010°37'816.2
2019-Jul-12 19:30N 58°45' E 010°35'816.7
2019-Jul-12 19:00N 58°53' E 010°35'917.0
2019-Jul-12 18:30N 59°01' E 010°37'816.5
2019-Jul-12 18:01N 59°10' E 010°39'816.3
2019-Jul-12 17:30N 59°18' E 010°36'816.1
2019-Jul-12 17:01N 59°26' E 010°33'816.1
2019-Jul-12 16:30N 59°33' E 010°37'715.0
2019-Jul-12 16:00N 59°41' E 010°37'714.2
2019-Jul-12 15:30N 59°48' E 010°34'713.4
2019-Jul-12 14:59N 59°54' E 010°42'2 3.1
2019-Jul-12 14:28N 59°54' E 010°45'0 0.0
2019-Jul-12 13:58N 59°54' E 010°45'0 0.0
2019-Jul-12 13:28N 59°54' E 010°45'0 0.0
2019-Jul-12 12:58N 59°54' E 010°45'0 0.0
2019-Jul-12 12:28N 59°54' E 010°45'0 0.0
2019-Jul-12 11:58N 59°54' E 010°45'0 0.0
2019-Jul-12 11:28N 59°54' E 010°45'0 0.0
2019-Jul-12 10:58N 59°54' E 010°45'0 0.0
2019-Jul-12 10:28N 59°54' E 010°45'0 0.0
2019-Jul-12 09:58N 59°54' E 010°45'0 0.0
2019-Jul-12 09:28N 59°54' E 010°45'0 0.0
2019-Jul-12 08:58N 59°54' E 010°45'0 0.0
2019-Jul-12 08:28N 59°54' E 010°45'0 0.0
2019-Jul-12 07:58N 59°54' E 010°45'0 0.5
2019-Jul-12 07:30N 59°54' E 010°44'714.1
2019-Jul-12 07:00N 59°49' E 010°35'714.6
2019-Jul-12 06:31N 59°42' E 010°36'714.0
2019-Jul-12 06:00N 59°35' E 010°38'815.1
2019-Jul-12 05:30N 59°27' E 010°34'815.8
2019-Jul-12 05:00N 59°19' E 010°36'  
Track history (hours):
 
Tides and Currents Weather Stations Pressure Air Temp Water Temp Dewpoint Dewpoint Depression Visibility Wind Speed Wind Dir Waves Ship Positions

Crown Of Scandinavia

Last reported at 2019-Jul-22 05:00 UTC. Time now 2019-Jul-22 05:26 UTC.
Position N 59°19' E 010°36'.

Length 171 m; draft 6.3 m.

Type: Ship. MMSI: 219592000.

Date/timePositionNaut miles runAvg speedWind from/ knotsBaromVisibWave heightAir tempDewpointWater temp
2019-Jul-22 05:00N 59°19' E 010°36'816.5
2019-Jul-22 04:30N 59°11' E 010°39'816.7
2019-Jul-22 04:00N 59°03' E 010°39'917.1
2019-Jul-22 03:31N 58°54' E 010°38'917.2
2019-Jul-22 03:00N 58°45' E 010°37'817.0
2019-Jul-22 02:30N 58°37' E 010°37'816.5
2019-Jul-22 02:00N 58°30' E 010°47'816.4
2019-Jul-22 01:30N 58°24' E 010°56'816.3
2019-Jul-22 01:00N 58°16' E 011°01'816.6
2019-Jul-22 00:30N 58°08' E 011°06'816.7
2019-Jul-22 00:00N 58°00' E 011°12'816.5
2019-Jul-21 23:30N 57°53' E 011°17'816.4
2019-Jul-21 23:01N 57°45' E 011°22'816.4
2019-Jul-21 22:30N 57°37' E 011°28'816.2
2019-Jul-21 22:00N 57°30' E 011°34'816.1
2019-Jul-21 21:30N 57°23' E 011°42'816.1
2019-Jul-21 21:00N 57°16' E 011°49'815.9
2019-Jul-21 20:30N 57°09' E 011°56'815.9
2019-Jul-21 20:00N 57°01' E 011°59'916.2
2019-Jul-21 19:25N 56°52' E 012°04'1016.2
2019-Jul-21 18:48N 56°42' E 012°10'515.5
2019-Jul-21 18:30N 56°38' E 012°13'2914.7
2019-Jul-21 16:31N 56°10' E 012°29'116.0
2019-Jul-21 16:27N 56°09' E 012°30'716.5
2019-Jul-21 16:00N 56°04' E 012°38'816.2
2019-Jul-21 15:30N 55°56' E 012°43'815.9
2019-Jul-21 15:00N 55°48' E 012°43'713.2
2019-Jul-21 14:30N 55°43' E 012°37'1 2.1
2019-Jul-21 14:00N 55°42' E 012°36'0 0.0
2019-Jul-21 13:30N 55°42' E 012°36'0 0.0
2019-Jul-21 13:00N 55°42' E 012°36'0 0.0
2019-Jul-21 12:30N 55°42' E 012°36'0 0.0
2019-Jul-21 12:00N 55°42' E 012°36'0 0.0
2019-Jul-21 11:30N 55°42' E 012°36'0 0.0
2019-Jul-21 11:00N 55°42' E 012°36'0 0.0
2019-Jul-21 10:30N 55°42' E 012°36'0 0.0
2019-Jul-21 10:00N 55°42' E 012°36'0 0.0
2019-Jul-21 09:30N 55°42' E 012°36'0 0.0
2019-Jul-21 09:00N 55°42' E 012°36'0 0.0
2019-Jul-21 08:30N 55°42' E 012°36'0 0.0
2019-Jul-21 08:00N 55°42' E 012°36'0 0.7
2019-Jul-21 07:30N 55°42' E 012°36'611.0
2019-Jul-21 07:01N 55°47' E 012°42'815.0
2019-Jul-21 06:30N 55°54' E 012°39'815.5
2019-Jul-21 06:00N 56°02' E 012°39'814.8
2019-Jul-21 05:30N 56°08' E 012°30'715.0
2019-Jul-21 05:00N 56°15' E 012°25'815.3
2019-Jul-21 04:30N 56°22' E 012°21'5416.2
2019-Jul-21 01:09N 57°14' E 011°52'216.0
2019-Jul-21 01:00N 57°16' E 011°50'815.7
2019-Jul-21 00:30N 57°22' E 011°42'816.3
2019-Jul-21 00:00N 57°29' E 011°33'816.6
2019-Jul-20 23:31N 57°36' E 011°25'816.2
2019-Jul-20 23:01N 57°43' E 011°18'816.6
2019-Jul-20 22:31N 57°50' E 011°09'917.3
2019-Jul-20 22:00N 57°58' E 011°01'816.0
2019-Jul-20 21:30N 58°05' E 010°56'816.0
2019-Jul-20 21:00N 58°13' E 010°50'815.8
2019-Jul-20 20:31N 58°20' E 010°45'816.5
2019-Jul-20 20:00N 58°28' E 010°39'816.4
2019-Jul-20 19:30N 58°36' E 010°36'816.8
2019-Jul-20 19:00N 58°44' E 010°35'816.9
2019-Jul-20 18:30N 58°53' E 010°35'917.7
2019-Jul-20 18:00N 59°01' E 010°37'917.1
2019-Jul-20 17:30N 59°10' E 010°39'917.0
2019-Jul-20 17:00N 59°18' E 010°36'917.2
2019-Jul-20 16:30N 59°27' E 010°33'917.1
2019-Jul-20 16:00N 59°35' E 010°38'714.0
2019-Jul-20 15:30N 59°42' E 010°35'815.2
2019-Jul-20 15:00N 59°49' E 010°34'713.5
2019-Jul-20 14:30N 59°54' E 010°44'0 0.3
2019-Jul-20 14:00N 59°54' E 010°45'0 0.0
2019-Jul-20 13:30N 59°54' E 010°45'0 0.0
2019-Jul-20 12:59N 59°54' E 010°45'0 0.0
2019-Jul-20 12:30N 59°54' E 010°45'0 0.0
2019-Jul-20 12:00N 59°54' E 010°45'0 0.0
2019-Jul-20 11:29N 59°54' E 010°45'0 0.0
2019-Jul-20 11:00N 59°54' E 010°45'0 0.0
2019-Jul-20 10:30N 59°54' E 010°45'0 0.0
2019-Jul-20 10:00N 59°54' E 010°45'0 0.0
2019-Jul-20 09:30N 59°54' E 010°45'0 0.0
2019-Jul-20 09:00N 59°54' E 010°45'0 0.0
2019-Jul-20 08:30N 59°54' E 010°45'0 0.0
2019-Jul-20 08:00N 59°54' E 010°45'1 1.4
2019-Jul-20 07:30N 59°54' E 010°43'714.3
2019-Jul-20 07:00N 59°48' E 010°35'714.7
2019-Jul-20 06:30N 59°41' E 010°36'714.4
2019-Jul-20 06:00N 59°34' E 010°38'815.6
2019-Jul-20 05:30N 59°26' E 010°34'815.9
2019-Jul-20 05:01N 59°19' E 010°36'816.1
2019-Jul-20 04:31N 59°11' E 010°39'815.8
2019-Jul-20 04:00N 59°03' E 010°40'815.9
2019-Jul-20 03:30N 58°55' E 010°41'815.7
2019-Jul-20 03:00N 58°47' E 010°41'815.6
2019-Jul-20 02:30N 58°39' E 010°42'815.3
2019-Jul-20 02:00N 58°32' E 010°44'815.9
2019-Jul-20 01:30N 58°25' E 010°52'816.1
2019-Jul-20 01:00N 58°18' E 011°00'816.1
2019-Jul-20 00:30N 58°11' E 011°06'816.1
2019-Jul-20 00:00N 58°03' E 011°11'815.9
2019-Jul-19 23:30N 57°55' E 011°16'816.2
2019-Jul-19 23:00N 57°48' E 011°21'816.5
2019-Jul-19 22:30N 57°40' E 011°27'816.8
2019-Jul-19 22:00N 57°33' E 011°33'816.1
2019-Jul-19 21:30N 57°25' E 011°40'815.5
2019-Jul-19 21:00N 57°19' E 011°47'816.5
2019-Jul-19 20:30N 57°11' E 011°54'816.0
2019-Jul-19 20:00N 57°04' E 012°00'1415.9
2019-Jul-19 19:09N 56°51' E 012°09'616.1
2019-Jul-19 18:47N 56°46' E 012°12'415.8
2019-Jul-19 18:30N 56°41' E 012°14'815.6
2019-Jul-19 17:58N 56°33' E 012°18'1115.5
2019-Jul-19 17:14N 56°22' E 012°23'1216.2
2019-Jul-19 16:28N 56°10' E 012°30'817.3
2019-Jul-19 16:00N 56°04' E 012°38'816.2
2019-Jul-19 15:30N 55°56' E 012°43'815.8
2019-Jul-19 15:00N 55°48' E 012°43'713.9
2019-Jul-19 14:30N 55°43' E 012°37'1 1.4
2019-Jul-19 14:01N 55°42' E 012°36'0 0.0
2019-Jul-19 13:30N 55°42' E 012°36'0 0.0
2019-Jul-19 13:00N 55°42' E 012°36'0 0.0
2019-Jul-19 12:30N 55°42' E 012°36'0 0.0
2019-Jul-19 12:00N 55°42' E 012°36'0 0.0
2019-Jul-19 11:30N 55°42' E 012°36'0 0.0
2019-Jul-19 11:00N 55°42' E 012°36'0 0.0
2019-Jul-19 10:31N 55°42' E 012°36'0 0.0
2019-Jul-19 10:00N 55°42' E 012°36'0 0.0
2019-Jul-19 09:31N 55°42' E 012°36'0 0.0
2019-Jul-19 09:00N 55°42' E 012°36'0 0.0
2019-Jul-19 08:31N 55°42' E 012°36'0 0.0
2019-Jul-19 08:01N 55°42' E 012°36'1 1.4
2019-Jul-19 07:30N 55°43' E 012°37'714.0
2019-Jul-19 07:00N 55°49' E 012°42'815.8
2019-Jul-19 06:30N 55°57' E 012°40'815.4
2019-Jul-19 06:00N 56°04' E 012°37'815.3
2019-Jul-19 05:30N 56°09' E 012°26'816.6
2019-Jul-19 05:00N 56°15' E 012°15'816.9
2019-Jul-19 04:30N 56°22' E 012°07'2416.3
2019-Jul-19 03:03N 56°44' E 011°53'116.7
2019-Jul-19 03:00N 56°45' E 011°53'816.4
2019-Jul-19 02:30N 56°53' E 011°48'816.8
2019-Jul-19 02:00N 57°01' E 011°43'816.8
2019-Jul-19 01:30N 57°08' E 011°38'816.8
2019-Jul-19 01:00N 57°16' E 011°32'816.5
2019-Jul-19 00:30N 57°24' E 011°26'816.1
2019-Jul-19 00:00N 57°31' E 011°20'816.5
2019-Jul-18 23:30N 57°39' E 011°15'816.2
2019-Jul-18 23:00N 57°46' E 011°09'816.4
2019-Jul-18 22:30N 57°54' E 011°03'816.3
2019-Jul-18 22:00N 58°02' E 010°58'816.4
2019-Jul-18 21:30N 58°09' E 010°52'816.6
2019-Jul-18 21:00N 58°17' E 010°46'816.5
2019-Jul-18 20:30N 58°25' E 010°41'816.2
2019-Jul-18 20:00N 58°33' E 010°37'816.0
2019-Jul-18 19:30N 58°40' E 010°35'816.4
2019-Jul-18 19:00N 58°49' E 010°34'816.9
2019-Jul-18 18:30N 58°57' E 010°36'816.7
2019-Jul-18 18:00N 59°05' E 010°37'816.2
2019-Jul-18 17:30N 59°14' E 010°37'816.0
2019-Jul-18 17:00N 59°21' E 010°34'815.3
2019-Jul-18 16:31N 59°29' E 010°34'815.3
2019-Jul-18 16:00N 59°36' E 010°38'612.6
2019-Jul-18 15:30N 59°43' E 010°35'714.9
2019-Jul-18 15:01N 59°50' E 010°35'612.1
2019-Jul-18 14:30N 59°54' E 010°44'0 0.6
2019-Jul-18 13:58N 59°54' E 010°45'0 0.0
2019-Jul-18 13:30N 59°54' E 010°45'0 0.0
2019-Jul-18 13:01N 59°54' E 010°45'0 0.0
2019-Jul-18 12:31N 59°54' E 010°45'0 0.0
2019-Jul-18 12:01N 59°54' E 010°45'0 0.0
2019-Jul-18 11:31N 59°54' E 010°45'0 0.0
2019-Jul-18 11:01N 59°54' E 010°45'0 0.0
2019-Jul-18 10:31N 59°54' E 010°45'0 0.0
2019-Jul-18 10:01N 59°54' E 010°45'0 0.0
2019-Jul-18 09:31N 59°54' E 010°45'0 0.0
2019-Jul-18 09:01N 59°54' E 010°45'0 0.0
2019-Jul-18 08:31N 59°54' E 010°45'0 0.0
2019-Jul-18 08:00N 59°54' E 010°45'0 0.3
2019-Jul-18 07:30N 59°54' E 010°44'612.8
2019-Jul-18 07:00N 59°50' E 010°35'714.7
2019-Jul-18 06:30N 59°42' E 010°36'714.0
2019-Jul-18 06:00N 59°35' E 010°38'816.3
2019-Jul-18 05:30N 59°27' E 010°34'816.5
2019-Jul-18 05:00N 59°19' E 010°36'816.7
2019-Jul-18 04:30N 59°11' E 010°39'816.4
2019-Jul-18 04:01N 59°03' E 010°40'816.0
2019-Jul-18 03:31N 58°55' E 010°41'816.0
2019-Jul-18 03:01N 58°47' E 010°42'815.9
2019-Jul-18 02:31N 58°39' E 010°43'816.0
2019-Jul-18 02:00N 58°31' E 010°45'816.1
2019-Jul-18 01:30N 58°24' E 010°52'816.0
2019-Jul-18 01:01N 58°17' E 011°01'816.3
2019-Jul-18 00:30N 58°10' E 011°07'816.0
2019-Jul-18 00:01N 58°02' E 011°12'816.2
2019-Jul-17 23:30N 57°55' E 011°18'816.6
2019-Jul-17 23:01N 57°47' E 011°23'816.6
2019-Jul-17 22:31N 57°39' E 011°28'917.2
2019-Jul-17 22:01N 57°31' E 011°34'815.9
2019-Jul-17 21:31N 57°24' E 011°41'815.8
2019-Jul-17 21:00N 57°17' E 011°48'816.3
2019-Jul-17 20:30N 57°10' E 011°54'816.4
2019-Jul-17 20:00N 57°02' E 011°58'816.5
2019-Jul-17 19:31N 56°54' E 012°03'816.3
2019-Jul-17 19:01N 56°46' E 012°07'816.3
2019-Jul-17 18:30N 56°39' E 012°12'816.1
2019-Jul-17 18:00N 56°31' E 012°18'815.8
2019-Jul-17 17:30N 56°24' E 012°22'1116.3
2019-Jul-17 16:50N 56°13' E 012°28'516.5
2019-Jul-17 16:31N 56°08' E 012°32'816.6
2019-Jul-17 16:00N 56°01' E 012°40'816.2
2019-Jul-17 15:31N 55°54' E 012°44'815.9
2019-Jul-17 15:00N 55°46' E 012°42'510.0
2019-Jul-17 14:30N 55°42' E 012°36'0 0.0
2019-Jul-17 14:00N 55°42' E 012°36'0 0.0
2019-Jul-17 13:30N 55°42' E 012°36'0 0.0
2019-Jul-17 13:00N 55°42' E 012°36'0 0.0
2019-Jul-17 12:31N 55°42' E 012°36'0 0.0
2019-Jul-17 12:00N 55°42' E 012°36'0 0.0
2019-Jul-17 11:30N 55°42' E 012°36'0 0.0
2019-Jul-17 11:01N 55°42' E 012°36'0 0.0
2019-Jul-17 10:31N 55°42' E 012°36'0 0.0
2019-Jul-17 10:01N 55°42' E 012°36'0 0.0
2019-Jul-17 09:31N 55°42' E 012°36'0 0.0
2019-Jul-17 09:00N 55°42' E 012°36'0 0.0
2019-Jul-17 08:31N 55°42' E 012°36'0 0.0
2019-Jul-17 08:00N 55°42' E 012°36'0 0.9
2019-Jul-17 07:30N 55°42' E 012°36'611.9
2019-Jul-17 07:00N 55°47' E 012°42'815.8
2019-Jul-17 06:30N 55°55' E 012°39'816.0
2019-Jul-17 06:00N 56°03' E 012°39'816.3
2019-Jul-17 05:30N 56°09' E 012°29'816.8
2019-Jul-17 05:00N 56°17' E 012°24'2917.2
2019-Jul-17 03:17N 56°45' E 012°07'517.1
2019-Jul-17 03:00N 56°50' E 012°04'917.2
2019-Jul-17 02:28N 56°59' E 012°00'816.9
2019-Jul-17 02:00N 57°06' E 011°56'816.8
2019-Jul-17 01:30N 57°14' E 011°51'816.8
2019-Jul-17 01:00N 57°21' E 011°42'917.3
2019-Jul-17 00:30N 57°27' E 011°32'816.6
2019-Jul-17 00:00N 57°34' E 011°23'917.1
2019-Jul-16 23:30N 57°43' E 011°20'816.6
2019-Jul-16 23:00N 57°50' E 011°12'917.2
2019-Jul-16 22:30N 57°57' E 011°03'917.4
2019-Jul-16 22:00N 58°05' E 010°56'917.3
2019-Jul-16 21:30N 58°13' E 010°50'917.2
2019-Jul-16 21:00N 58°21' E 010°44'816.6
2019-Jul-16 20:30N 58°29' E 010°38'816.1
2019-Jul-16 20:00N 58°37' E 010°37'816.4
2019-Jul-16 19:30N 58°45' E 010°35'816.5
2019-Jul-16 19:00N 58°53' E 010°35'816.8
2019-Jul-16 18:30N 59°01' E 010°37'917.1
2019-Jul-16 18:00N 59°10' E 010°38'917.8
2019-Jul-16 17:30N 59°19' E 010°35'917.7
2019-Jul-16 17:00N 59°27' E 010°34'817.0
2019-Jul-16 16:30N 59°36' E 010°38'713.4
2019-Jul-16 16:00N 59°42' E 010°35'815.7
2019-Jul-16 15:30N 59°50' E 010°35'611.1
2019-Jul-16 15:00N 59°54' E 010°43'1 1.6
2019-Jul-16 14:30N 59°54' E 010°45'0 0.0
2019-Jul-16 14:00N 59°54' E 010°45'0 0.0
2019-Jul-16 13:30N 59°54' E 010°45'0 0.0
2019-Jul-16 13:00N 59°54' E 010°45'0 0.0
2019-Jul-16 12:30N 59°54' E 010°45'0 0.0
2019-Jul-16 11:59N 59°54' E 010°45'0 0.0
2019-Jul-16 11:30N 59°54' E 010°45'0 0.0
2019-Jul-16 11:00N 59°54' E 010°45'0 0.0
2019-Jul-16 10:30N 59°54' E 010°45'0 0.0
2019-Jul-16 10:00N 59°54' E 010°45'0 0.0
2019-Jul-16 09:30N 59°54' E 010°45'0 0.0
2019-Jul-16 09:00N 59°54' E 010°45'0 0.0
2019-Jul-16 08:30N 59°54' E 010°45'0 0.0
2019-Jul-16 08:00N 59°54' E 010°45'1 1.0
2019-Jul-16 07:30N 59°54' E 010°44'714.2
2019-Jul-16 07:00N 59°49' E 010°35'715.0
2019-Jul-16 06:30N 59°41' E 010°36'714.6
2019-Jul-16 06:00N 59°34' E 010°38'816.7
2019-Jul-16 05:31N 59°26' E 010°34'816.4
2019-Jul-16 05:00N 59°18' E 010°37'816.4
2019-Jul-16 04:30N 59°10' E 010°39'816.8
2019-Jul-16 04:00N 59°01' E 010°41'816.8
2019-Jul-16 03:30N 58°53' E 010°41'816.8
2019-Jul-16 03:00N 58°44' E 010°41'917.7
2019-Jul-16 02:30N 58°35' E 010°40'917.0
2019-Jul-16 02:00N 58°27' E 010°40'815.5
2019-Jul-16 01:30N 58°20' E 010°45'917.0
2019-Jul-16 01:00N 58°14' E 010°57'816.6
2019-Jul-16 00:30N 58°06' E 011°01'816.9
2019-Jul-16 00:00N 57°58' E 011°06'917.2
2019-Jul-15 23:30N 57°51' E 011°15'917.6
2019-Jul-15 23:00N 57°44' E 011°24'917.7
2019-Jul-15 22:30N 57°35' E 011°30'917.2
2019-Jul-15 22:01N 57°28' E 011°37'917.3
2019-Jul-15 21:30N 57°20' E 011°45'917.9
2019-Jul-15 21:00N 57°12' E 011°53'917.9
2019-Jul-15 20:30N 57°04' E 011°59'916.9
2019-Jul-15 19:58N 56°56' E 012°05'4616.5
2019-Jul-15 17:11N 56°11' E 012°27'417.4
2019-Jul-15 16:58N 56°08' E 012°31'817.2
2019-Jul-15 16:31N 56°02' E 012°40'816.5
2019-Jul-15 16:01N 55°54' E 012°44'815.8
2019-Jul-15 15:31N 55°46' E 012°42'510.3
2019-Jul-15 15:00N 55°42' E 012°36'0 0.0
2019-Jul-15 14:29N 55°42' E 012°36'0 0.0
2019-Jul-15 13:53N 55°42' E 012°36'0 0.0
2019-Jul-15 13:29N 55°42' E 012°36'0 0.0
2019-Jul-15 12:53N 55°42' E 012°36'0 0.0
2019-Jul-15 12:29N 55°42' E 012°36'0 0.0
2019-Jul-15 11:59N 55°42' E 012°36'0 0.0
2019-Jul-15 11:29N 55°42' E 012°36'0 0.0
2019-Jul-15 10:59N 55°42' E 012°36'0 0.0
2019-Jul-15 10:26N 55°42' E 012°36'0 0.0
2019-Jul-15 09:59N 55°42' E 012°36'0 0.0
2019-Jul-15 09:29N 55°42' E 012°36'0 0.0
2019-Jul-15 08:59N 55°42' E 012°36'0 0.0
2019-Jul-15 08:23N 55°42' E 012°36'0 0.0
2019-Jul-15 07:59N 55°42' E 012°36'0 0.6
2019-Jul-15 07:30N 55°42' E 012°36'510.9
2019-Jul-15 07:01N 55°47' E 012°42'815.5
2019-Jul-15 06:31N 55°54' E 012°39'816.0
2019-Jul-15 06:00N 56°02' E 012°39'815.6
2019-Jul-15 05:30N 56°08' E 012°29'816.6
2019-Jul-15 05:00N 56°15' E 012°22'1015.5
2019-Jul-15 04:19N 56°25' E 012°17'817.4
2019-Jul-15 03:52N 56°33' E 012°15'818.9
2019-Jul-15 03:28N 56°41' E 012°11'918.5
2019-Jul-15 03:00N 56°49' E 012°06'1317.8
2019-Jul-15 02:15N 57°02' E 011°59'517.6
2019-Jul-15 01:57N 57°07' E 011°57'817.7
2019-Jul-15 01:31N 57°14' E 011°52'917.6
2019-Jul-15 01:01N 57°21' E 011°43'917.9
2019-Jul-15 00:31N 57°28' E 011°32'918.1
2019-Jul-15 00:00N 57°35' E 011°20'917.4
2019-Jul-14 23:30N 57°42' E 011°12'918.0
2019-Jul-14 23:01N 57°50' E 011°06'918.0
2019-Jul-14 22:31N 57°59' E 010°60'816.9
2019-Jul-14 22:00N 58°07' E 010°54'917.2
2019-Jul-14 21:31N 58°15' E 010°48'917.4
2019-Jul-14 21:00N 58°23' E 010°42'917.2
2019-Jul-14 20:30N 58°31' E 010°37'815.5
2019-Jul-14 20:00N 58°39' E 010°36'815.9
2019-Jul-14 19:31N 58°47' E 010°35'816.7
2019-Jul-14 19:00N 58°55' E 010°36'817.1
2019-Jul-14 18:31N 59°04' E 010°37'817.0
2019-Jul-14 18:00N 59°12' E 010°38'816.8
2019-Jul-14 17:30N 59°20' E 010°35'816.2
2019-Jul-14 17:00N 59°29' E 010°34'816.0
2019-Jul-14 16:31N 59°36' E 010°37'713.6
2019-Jul-14 16:00N 59°43' E 010°34'815.7
2019-Jul-14 15:31N 59°51' E 010°35'611.1
2019-Jul-14 15:00N 59°54' E 010°45'0 0.0
2019-Jul-14 14:28N 59°54' E 010°45'0 0.0
2019-Jul-14 13:58N 59°54' E 010°45'0 0.0
2019-Jul-14 13:28N 59°54' E 010°45'0 0.0
2019-Jul-14 12:58N 59°54' E 010°45'0 0.0
2019-Jul-14 12:28N 59°54' E 010°45'0 0.0
2019-Jul-14 11:58N 59°54' E 010°45'0 0.0
2019-Jul-14 11:28N 59°54' E 010°45'0 0.0
2019-Jul-14 10:58N 59°54' E 010°45'0 0.0
2019-Jul-14 10:28N 59°54' E 010°45'0 0.0
2019-Jul-14 09:58N 59°54' E 010°45'0 0.0
2019-Jul-14 09:28N 59°54' E 010°45'0 0.0
2019-Jul-14 08:58N 59°54' E 010°45'0 0.0
2019-Jul-14 08:28N 59°54' E 010°45'0 0.0
2019-Jul-14 07:58N 59°54' E 010°45'1 2.0
2019-Jul-14 07:30N 59°54' E 010°43'714.8
2019-Jul-14 07:00N 59°48' E 010°35'714.6
2019-Jul-14 06:31N 59°41' E 010°37'5 9.3
2019-Jul-14 06:01N 59°36' E 010°38'714.9
2019-Jul-14 05:30N 59°29' E 010°35'714.9
2019-Jul-14 05:00N 59°21' E 010°35'816.0
2019-Jul-14 04:30N 59°14' E 010°38'816.0
2019-Jul-14 04:00N 59°06' E 010°40'816.0
2019-Jul-14 03:30N 58°58' E 010°42'815.7
2019-Jul-14 03:00N 58°50' E 010°45'815.8
2019-Jul-14 02:30N 58°42' E 010°47'816.3
2019-Jul-14 02:00N 58°34' E 010°50'816.7
2019-Jul-14 01:30N 58°26' E 010°56'817.0
2019-Jul-14 01:00N 58°18' E 011°01'817.0
2019-Jul-14 00:30N 58°10' E 011°07'816.6
2019-Jul-14 00:00N 58°03' E 011°12'816.4
2019-Jul-13 23:30N 57°55' E 011°18'816.8
2019-Jul-13 23:00N 57°47' E 011°23'917.1
2019-Jul-13 22:30N 57°39' E 011°29'816.7
2019-Jul-13 22:00N 57°31' E 011°34'816.0
2019-Jul-13 21:30N 57°24' E 011°41'816.2
2019-Jul-13 21:00N 57°17' E 011°48'817.0
2019-Jul-13 20:30N 57°09' E 011°55'816.6
2019-Jul-13 20:00N 57°02' E 012°01'816.0
2019-Jul-13 19:30N 56°54' E 012°07'1516.1
2019-Jul-13 18:34N 56°40' E 012°15'115.7
2019-Jul-13 18:30N 56°39' E 012°15'815.5
2019-Jul-13 18:00N 56°31' E 012°18'916.0
2019-Jul-13 17:26N 56°23' E 012°22'1416.8
2019-Jul-13 16:36N 56°09' E 012°30'217.5
2019-Jul-13 16:30N 56°08' E 012°32'816.8
2019-Jul-13 16:00N 56°01' E 012°40'815.8
2019-Jul-13 15:31N 55°54' E 012°45'815.6
2019-Jul-13 15:01N 55°46' E 012°41'5 9.7
2019-Jul-13 14:30N 55°42' E 012°36'0 0.0
2019-Jul-13 14:00N 55°42' E 012°36'0 0.0
2019-Jul-13 13:21N 55°42' E 012°36'0 0.0
2019-Jul-13 12:54N 55°42' E 012°36'0 0.0
2019-Jul-13 12:30N 55°42' E 012°36'0 0.0
2019-Jul-13 12:00N 55°42' E 012°36'0 0.0
2019-Jul-13 11:30N 55°42' E 012°36'0 0.0
2019-Jul-13 11:00N 55°42' E 012°36'0 0.0
2019-Jul-13 10:30N 55°42' E 012°36'0 0.0
2019-Jul-13 10:00N 55°42' E 012°36'0 0.0
2019-Jul-13 09:24N 55°42' E 012°36'0 0.0
2019-Jul-13 08:57N 55°42' E 012°36'0 0.0
2019-Jul-13 08:30N 55°42' E 012°36'0 0.0
2019-Jul-13 08:00N 55°42' E 012°36'0 0.6
2019-Jul-13 07:30N 55°42' E 012°36'611.8
2019-Jul-13 07:00N 55°47' E 012°42'815.1
2019-Jul-13 06:30N 55°55' E 012°39'815.1
2019-Jul-13 06:00N 56°02' E 012°39'714.8
2019-Jul-13 05:30N 56°08' E 012°30'815.0
2019-Jul-13 05:00N 56°14' E 012°22'816.0
2019-Jul-13 04:30N 56°20' E 012°13'816.9
2019-Jul-13 04:00N 56°27' E 012°04'1017.5
2019-Jul-13 03:27N 56°35' E 011°56'918.7
2019-Jul-13 02:59N 56°44' E 011°51'918.7
2019-Jul-13 02:30N 56°53' E 011°47'918.4
2019-Jul-13 02:00N 57°01' E 011°41'918.3
2019-Jul-13 01:30N 57°10' E 011°35'917.8
2019-Jul-13 01:00N 57°18' E 011°30'917.4
2019-Jul-13 00:31N 57°26' E 011°24'917.6
2019-Jul-13 00:00N 57°35' E 011°19'917.6
2019-Jul-12 23:31N 57°43' E 011°14'816.2
2019-Jul-12 23:00N 57°50' E 011°06'816.7
2019-Jul-12 22:30N 57°58' E 011°00'816.3
2019-Jul-12 22:01N 58°05' E 010°55'816.7
2019-Jul-12 21:30N 58°13' E 010°49'816.4
2019-Jul-12 21:00N 58°21' E 010°44'816.4
2019-Jul-12 20:31N 58°28' E 010°38'816.3
2019-Jul-12 20:00N 58°36' E 010°37'816.2
2019-Jul-12 19:30N 58°45' E 010°35'816.7
2019-Jul-12 19:00N 58°53' E 010°35'917.0
2019-Jul-12 18:30N 59°01' E 010°37'816.5
2019-Jul-12 18:01N 59°10' E 010°39'816.3
2019-Jul-12 17:30N 59°18' E 010°36'816.1
2019-Jul-12 17:01N 59°26' E 010°33'816.1
2019-Jul-12 16:30N 59°33' E 010°37'715.0
2019-Jul-12 16:00N 59°41' E 010°37'714.2
2019-Jul-12 15:30N 59°48' E 010°34'713.4
2019-Jul-12 14:59N 59°54' E 010°42'2 3.1
2019-Jul-12 14:28N 59°54' E 010°45'0 0.0
2019-Jul-12 13:58N 59°54' E 010°45'0 0.0
2019-Jul-12 13:28N 59°54' E 010°45'0 0.0
2019-Jul-12 12:58N 59°54' E 010°45'0 0.0
2019-Jul-12 12:28N 59°54' E 010°45'0 0.0
2019-Jul-12 11:58N 59°54' E 010°45'0 0.0
2019-Jul-12 11:28N 59°54' E 010°45'0 0.0
2019-Jul-12 10:58N 59°54' E 010°45'0 0.0
2019-Jul-12 10:28N 59°54' E 010°45'0 0.0
2019-Jul-12 09:58N 59°54' E 010°45'0 0.0
2019-Jul-12 09:28N 59°54' E 010°45'0 0.0
2019-Jul-12 08:58N 59°54' E 010°45'0 0.0
2019-Jul-12 08:28N 59°54' E 010°45'0 0.0
2019-Jul-12 07:58N 59°54' E 010°45'0 0.5
2019-Jul-12 07:30N 59°54' E 010°44'714.1
2019-Jul-12 07:00N 59°49' E 010°35'714.6
2019-Jul-12 06:31N 59°42' E 010°36'714.0
2019-Jul-12 06:00N 59°35' E 010°38'815.1
2019-Jul-12 05:30N 59°27' E 010°34'815.8
2019-Jul-12 05:00N 59°19' E 010°36'  

Dump ship's entire track history